sensor_id;sensor_type;location;lat;lon;timestamp;P1;durP1;ratioP1;P2;durP2;ratioP2
49123;SDS011;48506;48.202;16.274;2023-11-19T00:00:57;14.45;;;9.20;;
49123;SDS011;48506;48.202;16.274;2023-11-19T00:03:23;15.38;;;9.07;;
49123;SDS011;48506;48.202;16.274;2023-11-19T00:05:49;15.98;;;7.97;;
49123;SDS011;48506;48.202;16.274;2023-11-19T00:08:16;15.02;;;9.07;;
49123;SDS011;48506;48.202;16.274;2023-11-19T00:10:42;16.65;;;9.63;;
49123;SDS011;48506;48.202;16.274;2023-11-19T00:13:08;17.05;;;9.65;;
49123;SDS011;48506;48.202;16.274;2023-11-19T00:15:35;16.88;;;9.73;;
49123;SDS011;48506;48.202;16.274;2023-11-19T00:18:01;16.60;;;10.10;;
49123;SDS011;48506;48.202;16.274;2023-11-19T00:20:29;19.60;;;9.80;;
49123;SDS011;48506;48.202;16.274;2023-11-19T00:22:56;20.17;;;10.13;;
49123;SDS011;48506;48.202;16.274;2023-11-19T00:25:22;17.02;;;11.15;;
49123;SDS011;48506;48.202;16.274;2023-11-19T00:27:47;15.10;;;8.75;;
49123;SDS011;48506;48.202;16.274;2023-11-19T00:30:14;16.88;;;8.80;;
49123;SDS011;48506;48.202;16.274;2023-11-19T00:32:40;18.42;;;9.82;;
49123;SDS011;48506;48.202;16.274;2023-11-19T00:35:07;15.52;;;10.00;;
49123;SDS011;48506;48.202;16.274;2023-11-19T00:37:35;14.02;;;7.82;;
49123;SDS011;48506;48.202;16.274;2023-11-19T00:40:01;20.55;;;12.30;;
49123;SDS011;48506;48.202;16.274;2023-11-19T00:42:30;26.33;;;13.65;;
49123;SDS011;48506;48.202;16.274;2023-11-19T00:44:56;23.35;;;12.75;;
49123;SDS011;48506;48.202;16.274;2023-11-19T00:47:23;20.38;;;11.77;;
49123;SDS011;48506;48.202;16.274;2023-11-19T00:49:49;19.80;;;11.90;;
49123;SDS011;48506;48.202;16.274;2023-11-19T00:52:16;21.33;;;13.98;;
49123;SDS011;48506;48.202;16.274;2023-11-19T00:54:42;28.25;;;13.45;;
49123;SDS011;48506;48.202;16.274;2023-11-19T00:57:09;20.70;;;11.80;;
49123;SDS011;48506;48.202;16.274;2023-11-19T00:59:35;26.08;;;12.35;;
49123;SDS011;48506;48.202;16.274;2023-11-19T01:02:01;19.58;;;11.30;;
49123;SDS011;48506;48.202;16.274;2023-11-19T01:04:37;17.05;;;11.20;;
49123;SDS011;48506;48.202;16.274;2023-11-19T01:07:04;16.23;;;9.90;;
49123;SDS011;48506;48.202;16.274;2023-11-19T01:09:32;14.98;;;9.32;;
49123;SDS011;48506;48.202;16.274;2023-11-19T01:12:00;16.83;;;9.20;;
49123;SDS011;48506;48.202;16.274;2023-11-19T01:14:28;15.35;;;10.27;;
49123;SDS011;48506;48.202;16.274;2023-11-19T01:16:55;17.58;;;9.55;;
49123;SDS011;48506;48.202;16.274;2023-11-19T01:19:21;15.15;;;9.93;;
49123;SDS011;48506;48.202;16.274;2023-11-19T01:21:48;11.85;;;8.13;;
49123;SDS011;48506;48.202;16.274;2023-11-19T01:24:15;13.40;;;8.45;;
49123;SDS011;48506;48.202;16.274;2023-11-19T01:26:41;13.35;;;9.32;;
49123;SDS011;48506;48.202;16.274;2023-11-19T01:29:13;13.35;;;8.38;;
49123;SDS011;48506;48.202;16.274;2023-11-19T01:31:41;13.13;;;8.23;;
49123;SDS011;48506;48.202;16.274;2023-11-19T01:34:07;16.05;;;8.77;;
49123;SDS011;48506;48.202;16.274;2023-11-19T01:36:34;16.02;;;9.32;;
49123;SDS011;48506;48.202;16.274;2023-11-19T01:39:00;14.95;;;8.73;;
49123;SDS011;48506;48.202;16.274;2023-11-19T01:41:26;15.85;;;10.02;;
49123;SDS011;48506;48.202;16.274;2023-11-19T01:43:52;19.77;;;9.52;;
49123;SDS011;48506;48.202;16.274;2023-11-19T01:46:19;15.38;;;8.88;;
49123;SDS011;48506;48.202;16.274;2023-11-19T01:48:46;14.60;;;9.00;;
49123;SDS011;48506;48.202;16.274;2023-11-19T01:51:12;16.13;;;9.20;;
49123;SDS011;48506;48.202;16.274;2023-11-19T01:53:42;19.65;;;9.73;;
49123;SDS011;48506;48.202;16.274;2023-11-19T01:56:09;12.70;;;8.35;;
49123;SDS011;48506;48.202;16.274;2023-11-19T01:58:39;16.07;;;9.90;;
49123;SDS011;48506;48.202;16.274;2023-11-19T02:01:07;13.73;;;9.00;;
49123;SDS011;48506;48.202;16.274;2023-11-19T02:03:33;18.15;;;9.00;;
49123;SDS011;48506;48.202;16.274;2023-11-19T02:06:00;16.52;;;8.70;;
49123;SDS011;48506;48.202;16.274;2023-11-19T02:08:26;13.27;;;9.43;;
49123;SDS011;48506;48.202;16.274;2023-11-19T02:10:52;13.73;;;8.25;;
49123;SDS011;48506;48.202;16.274;2023-11-19T02:13:23;15.73;;;8.95;;
49123;SDS011;48506;48.202;16.274;2023-11-19T02:15:50;11.95;;;6.45;;
49123;SDS011;48506;48.202;16.274;2023-11-19T02:18:17;11.13;;;7.28;;
49123;SDS011;48506;48.202;16.274;2023-11-19T02:20:45;11.07;;;7.18;;
49123;SDS011;48506;48.202;16.274;2023-11-19T02:23:12;8.23;;;6.15;;
49123;SDS011;48506;48.202;16.274;2023-11-19T02:25:39;10.10;;;7.25;;
49123;SDS011;48506;48.202;16.274;2023-11-19T02:28:06;10.23;;;5.97;;
49123;SDS011;48506;48.202;16.274;2023-11-19T02:30:34;10.57;;;6.15;;
49123;SDS011;48506;48.202;16.274;2023-11-19T02:33:00;10.50;;;6.05;;
49123;SDS011;48506;48.202;16.274;2023-11-19T02:35:30;10.38;;;6.72;;
49123;SDS011;48506;48.202;16.274;2023-11-19T02:37:57;9.88;;;6.93;;
49123;SDS011;48506;48.202;16.274;2023-11-19T02:40:29;8.52;;;6.18;;
49123;SDS011;48506;48.202;16.274;2023-11-19T02:42:55;7.45;;;6.10;;
49123;SDS011;48506;48.202;16.274;2023-11-19T02:45:24;7.95;;;5.88;;
49123;SDS011;48506;48.202;16.274;2023-11-19T02:50:18;9.23;;;6.03;;
49123;SDS011;48506;48.202;16.274;2023-11-19T02:52:51;8.23;;;6.57;;
49123;SDS011;48506;48.202;16.274;2023-11-19T02:55:19;9.60;;;6.97;;
49123;SDS011;48506;48.202;16.274;2023-11-19T02:57:45;10.20;;;7.47;;
49123;SDS011;48506;48.202;16.274;2023-11-19T03:00:17;9.45;;;6.82;;
49123;SDS011;48506;48.202;16.274;2023-11-19T03:02:49;9.15;;;6.63;;
49123;SDS011;48506;48.202;16.274;2023-11-19T03:05:25;12.07;;;7.65;;
49123;SDS011;48506;48.202;16.274;2023-11-19T03:07:55;9.55;;;6.22;;
49123;SDS011;48506;48.202;16.274;2023-11-19T03:10:22;11.18;;;7.38;;
49123;SDS011;48506;48.202;16.274;2023-11-19T03:12:49;14.93;;;8.65;;
49123;SDS011;48506;48.202;16.274;2023-11-19T03:15:15;12.15;;;7.38;;
49123;SDS011;48506;48.202;16.274;2023-11-19T03:17:42;11.48;;;7.57;;
49123;SDS011;48506;48.202;16.274;2023-11-19T03:20:09;11.90;;;7.55;;
49123;SDS011;48506;48.202;16.274;2023-11-19T03:22:42;10.10;;;6.90;;
49123;SDS011;48506;48.202;16.274;2023-11-19T03:25:09;12.60;;;6.88;;
49123;SDS011;48506;48.202;16.274;2023-11-19T03:27:36;11.68;;;7.47;;
49123;SDS011;48506;48.202;16.274;2023-11-19T03:30:07;11.90;;;8.02;;
49123;SDS011;48506;48.202;16.274;2023-11-19T03:32:37;12.48;;;8.32;;
49123;SDS011;48506;48.202;16.274;2023-11-19T03:35:04;14.02;;;9.25;;
49123;SDS011;48506;48.202;16.274;2023-11-19T03:37:35;10.00;;;7.20;;
49123;SDS011;48506;48.202;16.274;2023-11-19T03:40:01;13.23;;;8.05;;
49123;SDS011;48506;48.202;16.274;2023-11-19T03:42:28;13.45;;;7.70;;
49123;SDS011;48506;48.202;16.274;2023-11-19T03:44:57;12.55;;;7.65;;
49123;SDS011;48506;48.202;16.274;2023-11-19T03:47:23;12.07;;;7.47;;
49123;SDS011;48506;48.202;16.274;2023-11-19T03:49:50;14.88;;;9.48;;
49123;SDS011;48506;48.202;16.274;2023-11-19T03:52:17;13.07;;;8.38;;
49123;SDS011;48506;48.202;16.274;2023-11-19T03:54:45;16.10;;;9.30;;
49123;SDS011;48506;48.202;16.274;2023-11-19T03:57:11;12.82;;;8.75;;
49123;SDS011;48506;48.202;16.274;2023-11-19T03:59:38;12.90;;;8.55;;
49123;SDS011;48506;48.202;16.274;2023-11-19T04:02:04;13.98;;;8.57;;
49123;SDS011;48506;48.202;16.274;2023-11-19T04:04:30;15.10;;;9.43;;
49123;SDS011;48506;48.202;16.274;2023-11-19T04:06:56;12.23;;;8.85;;
49123;SDS011;48506;48.202;16.274;2023-11-19T04:09:23;13.50;;;9.10;;
49123;SDS011;48506;48.202;16.274;2023-11-19T04:11:49;12.10;;;8.13;;
49123;SDS011;48506;48.202;16.274;2023-11-19T04:14:15;15.18;;;9.88;;
49123;SDS011;48506;48.202;16.274;2023-11-19T04:16:44;14.05;;;9.07;;
49123;SDS011;48506;48.202;16.274;2023-11-19T04:19:10;16.60;;;8.65;;
49123;SDS011;48506;48.202;16.274;2023-11-19T04:21:37;15.55;;;10.00;;
49123;SDS011;48506;48.202;16.274;2023-11-19T04:24:07;13.80;;;9.10;;
49123;SDS011;48506;48.202;16.274;2023-11-19T04:26:44;16.17;;;10.40;;
49123;SDS011;48506;48.202;16.274;2023-11-19T04:29:11;17.25;;;10.20;;
49123;SDS011;48506;48.202;16.274;2023-11-19T04:31:39;14.85;;;9.30;;
49123;SDS011;48506;48.202;16.274;2023-11-19T04:34:05;18.52;;;9.73;;
49123;SDS011;48506;48.202;16.274;2023-11-19T04:36:32;14.30;;;9.80;;
49123;SDS011;48506;48.202;16.274;2023-11-19T04:39:01;17.15;;;10.13;;
49123;SDS011;48506;48.202;16.274;2023-11-19T04:41:28;15.02;;;9.27;;
49123;SDS011;48506;48.202;16.274;2023-11-19T04:43:54;17.02;;;9.75;;
49123;SDS011;48506;48.202;16.274;2023-11-19T04:46:20;15.10;;;9.65;;
49123;SDS011;48506;48.202;16.274;2023-11-19T04:48:46;16.35;;;10.05;;
49123;SDS011;48506;48.202;16.274;2023-11-19T04:51:12;18.42;;;10.68;;
49123;SDS011;48506;48.202;16.274;2023-11-19T04:53:38;18.83;;;9.90;;
49123;SDS011;48506;48.202;16.274;2023-11-19T04:56:08;18.65;;;11.13;;
49123;SDS011;48506;48.202;16.274;2023-11-19T05:01:01;18.92;;;10.63;;
49123;SDS011;48506;48.202;16.274;2023-11-19T05:03:29;17.60;;;10.45;;
49123;SDS011;48506;48.202;16.274;2023-11-19T05:05:56;17.35;;;10.98;;
49123;SDS011;48506;48.202;16.274;2023-11-19T05:08:23;16.05;;;10.32;;
49123;SDS011;48506;48.202;16.274;2023-11-19T05:10:49;19.65;;;10.82;;
49123;SDS011;48506;48.202;16.274;2023-11-19T05:13:15;18.45;;;10.77;;
49123;SDS011;48506;48.202;16.274;2023-11-19T05:15:42;22.23;;;12.52;;
49123;SDS011;48506;48.202;16.274;2023-11-19T05:18:08;16.70;;;10.73;;
49123;SDS011;48506;48.202;16.274;2023-11-19T05:20:34;23.25;;;12.10;;
49123;SDS011;48506;48.202;16.274;2023-11-19T05:23:00;20.52;;;12.65;;
49123;SDS011;48506;48.202;16.274;2023-11-19T05:25:26;18.77;;;12.07;;
49123;SDS011;48506;48.202;16.274;2023-11-19T05:27:52;20.65;;;11.98;;
49123;SDS011;48506;48.202;16.274;2023-11-19T05:30:18;21.05;;;11.20;;
49123;SDS011;48506;48.202;16.274;2023-11-19T05:32:44;19.77;;;12.65;;
49123;SDS011;48506;48.202;16.274;2023-11-19T05:35:11;24.95;;;13.65;;
49123;SDS011;48506;48.202;16.274;2023-11-19T05:37:39;23.13;;;14.13;;
49123;SDS011;48506;48.202;16.274;2023-11-19T05:40:05;19.15;;;12.45;;
49123;SDS011;48506;48.202;16.274;2023-11-19T05:42:39;20.10;;;13.52;;
49123;SDS011;48506;48.202;16.274;2023-11-19T05:45:09;20.88;;;11.73;;
49123;SDS011;48506;48.202;16.274;2023-11-19T05:47:37;19.20;;;12.73;;
49123;SDS011;48506;48.202;16.274;2023-11-19T05:50:03;20.65;;;14.15;;
49123;SDS011;48506;48.202;16.274;2023-11-19T05:52:31;23.65;;;14.13;;
49123;SDS011;48506;48.202;16.274;2023-11-19T05:55:01;24.25;;;14.57;;
49123;SDS011;48506;48.202;16.274;2023-11-19T05:57:34;23.55;;;13.80;;
49123;SDS011;48506;48.202;16.274;2023-11-19T06:00:05;20.58;;;13.38;;
49123;SDS011;48506;48.202;16.274;2023-11-19T06:02:33;23.50;;;14.57;;
49123;SDS011;48506;48.202;16.274;2023-11-19T06:05:00;24.45;;;15.85;;
49123;SDS011;48506;48.202;16.274;2023-11-19T06:07:27;24.85;;;14.75;;
49123;SDS011;48506;48.202;16.274;2023-11-19T06:09:53;32.42;;;17.60;;
49123;SDS011;48506;48.202;16.274;2023-11-19T06:12:19;26.83;;;16.02;;
49123;SDS011;48506;48.202;16.274;2023-11-19T06:14:45;31.63;;;16.33;;
49123;SDS011;48506;48.202;16.274;2023-11-19T06:17:11;23.58;;;14.13;;
49123;SDS011;48506;48.202;16.274;2023-11-19T06:19:38;27.67;;;16.90;;
49123;SDS011;48506;48.202;16.274;2023-11-19T06:22:04;33.40;;;17.77;;
49123;SDS011;48506;48.202;16.274;2023-11-19T06:24:31;26.38;;;15.85;;
49123;SDS011;48506;48.202;16.274;2023-11-19T06:26:57;30.10;;;17.38;;
49123;SDS011;48506;48.202;16.274;2023-11-19T06:29:23;27.63;;;16.73;;
49123;SDS011;48506;48.202;16.274;2023-11-19T06:31:50;27.23;;;16.30;;
49123;SDS011;48506;48.202;16.274;2023-11-19T06:34:17;32.97;;;18.15;;
49123;SDS011;48506;48.202;16.274;2023-11-19T06:36:43;34.25;;;17.40;;
49123;SDS011;48506;48.202;16.274;2023-11-19T06:39:10;42.10;;;20.33;;
49123;SDS011;48506;48.202;16.274;2023-11-19T06:41:39;29.25;;;17.25;;
49123;SDS011;48506;48.202;16.274;2023-11-19T06:44:09;26.42;;;16.25;;
49123;SDS011;48506;48.202;16.274;2023-11-19T06:46:35;25.80;;;16.00;;
49123;SDS011;48506;48.202;16.274;2023-11-19T06:49:01;26.20;;;16.38;;
49123;SDS011;48506;48.202;16.274;2023-11-19T06:51:28;35.00;;;18.73;;
49123;SDS011;48506;48.202;16.274;2023-11-19T06:53:55;30.35;;;17.02;;
49123;SDS011;48506;48.202;16.274;2023-11-19T06:56:22;30.10;;;17.33;;
49123;SDS011;48506;48.202;16.274;2023-11-19T06:58:50;28.63;;;16.10;;
49123;SDS011;48506;48.202;16.274;2023-11-19T07:01:17;24.13;;;16.05;;
49123;SDS011;48506;48.202;16.274;2023-11-19T07:03:45;32.05;;;17.98;;
49123;SDS011;48506;48.202;16.274;2023-11-19T07:06:11;33.22;;;18.00;;
49123;SDS011;48506;48.202;16.274;2023-11-19T07:08:43;34.63;;;18.85;;
49123;SDS011;48506;48.202;16.274;2023-11-19T07:11:12;31.92;;;19.13;;
49123;SDS011;48506;48.202;16.274;2023-11-19T07:13:42;32.97;;;19.70;;
49123;SDS011;48506;48.202;16.274;2023-11-19T07:16:08;27.40;;;16.60;;
49123;SDS011;48506;48.202;16.274;2023-11-19T07:18:37;37.05;;;18.52;;
49123;SDS011;48506;48.202;16.274;2023-11-19T07:21:04;28.73;;;17.55;;
49123;SDS011;48506;48.202;16.274;2023-11-19T07:23:30;30.63;;;18.15;;
49123;SDS011;48506;48.202;16.274;2023-11-19T07:25:56;33.00;;;19.17;;
49123;SDS011;48506;48.202;16.274;2023-11-19T07:28:22;35.22;;;19.00;;
49123;SDS011;48506;48.202;16.274;2023-11-19T07:30:49;28.15;;;17.73;;
49123;SDS011;48506;48.202;16.274;2023-11-19T07:33:15;38.75;;;20.73;;
49123;SDS011;48506;48.202;16.274;2023-11-19T07:35:42;31.15;;;17.23;;
49123;SDS011;48506;48.202;16.274;2023-11-19T07:38:09;30.63;;;18.90;;
49123;SDS011;48506;48.202;16.274;2023-11-19T07:40:35;40.88;;;19.77;;
49123;SDS011;48506;48.202;16.274;2023-11-19T07:43:01;27.33;;;17.13;;
49123;SDS011;48506;48.202;16.274;2023-11-19T07:45:27;28.80;;;16.50;;
49123;SDS011;48506;48.202;16.274;2023-11-19T07:47:53;34.88;;;19.10;;
49123;SDS011;48506;48.202;16.274;2023-11-19T07:50:20;31.58;;;19.23;;
49123;SDS011;48506;48.202;16.274;2023-11-19T07:52:46;40.72;;;20.75;;
49123;SDS011;48506;48.202;16.274;2023-11-19T07:55:12;29.23;;;17.55;;
49123;SDS011;48506;48.202;16.274;2023-11-19T07:57:38;25.60;;;16.00;;
49123;SDS011;48506;48.202;16.274;2023-11-19T08:00:04;28.00;;;17.25;;
49123;SDS011;48506;48.202;16.274;2023-11-19T08:02:32;34.08;;;19.75;;
49123;SDS011;48506;48.202;16.274;2023-11-19T08:04:58;33.75;;;18.10;;
49123;SDS011;48506;48.202;16.274;2023-11-19T08:07:24;37.78;;;19.83;;
49123;SDS011;48506;48.202;16.274;2023-11-19T08:09:50;29.02;;;16.52;;
49123;SDS011;48506;48.202;16.274;2023-11-19T08:12:16;28.67;;;17.17;;
49123;SDS011;48506;48.202;16.274;2023-11-19T08:14:42;28.77;;;17.45;;
49123;SDS011;48506;48.202;16.274;2023-11-19T08:17:09;29.40;;;17.40;;
49123;SDS011;48506;48.202;16.274;2023-11-19T08:19:35;30.60;;;18.40;;
49123;SDS011;48506;48.202;16.274;2023-11-19T08:22:01;25.38;;;16.50;;
49123;SDS011;48506;48.202;16.274;2023-11-19T08:24:27;30.15;;;18.40;;
49123;SDS011;48506;48.202;16.274;2023-11-19T08:26:53;28.30;;;16.50;;
49123;SDS011;48506;48.202;16.274;2023-11-19T08:29:19;30.00;;;16.92;;
49123;SDS011;48506;48.202;16.274;2023-11-19T08:31:46;27.38;;;16.10;;
49123;SDS011;48506;48.202;16.274;2023-11-19T08:34:12;29.40;;;17.38;;
49123;SDS011;48506;48.202;16.274;2023-11-19T08:36:38;22.95;;;15.00;;
49123;SDS011;48506;48.202;16.274;2023-11-19T08:39:04;24.50;;;15.75;;
49123;SDS011;48506;48.202;16.274;2023-11-19T08:41:30;23.88;;;14.68;;
49123;SDS011;48506;48.202;16.274;2023-11-19T08:43:56;28.75;;;15.95;;
49123;SDS011;48506;48.202;16.274;2023-11-19T08:46:22;27.98;;;16.58;;
49123;SDS011;48506;48.202;16.274;2023-11-19T08:48:48;30.98;;;16.60;;
49123;SDS011;48506;48.202;16.274;2023-11-19T08:51:14;25.63;;;15.93;;
49123;SDS011;48506;48.202;16.274;2023-11-19T08:53:40;27.58;;;17.25;;
49123;SDS011;48506;48.202;16.274;2023-11-19T08:56:06;27.73;;;17.40;;
49123;SDS011;48506;48.202;16.274;2023-11-19T08:58:33;29.75;;;16.50;;
49123;SDS011;48506;48.202;16.274;2023-11-19T09:00:59;35.58;;;19.20;;
49123;SDS011;48506;48.202;16.274;2023-11-19T09:03:25;24.83;;;16.48;;
49123;SDS011;48506;48.202;16.274;2023-11-19T09:05:51;25.08;;;16.52;;
49123;SDS011;48506;48.202;16.274;2023-11-19T09:08:18;29.10;;;17.60;;
49123;SDS011;48506;48.202;16.274;2023-11-19T09:10:44;25.65;;;16.20;;
49123;SDS011;48506;48.202;16.274;2023-11-19T09:13:10;32.28;;;19.85;;
49123;SDS011;48506;48.202;16.274;2023-11-19T09:15:36;33.00;;;18.25;;
49123;SDS011;48506;48.202;16.274;2023-11-19T09:18:02;31.00;;;17.58;;
49123;SDS011;48506;48.202;16.274;2023-11-19T09:20:28;28.17;;;18.17;;
49123;SDS011;48506;48.202;16.274;2023-11-19T09:22:57;28.40;;;17.92;;
49123;SDS011;48506;48.202;16.274;2023-11-19T09:25:24;28.70;;;16.85;;
49123;SDS011;48506;48.202;16.274;2023-11-19T09:27:50;27.27;;;16.70;;
49123;SDS011;48506;48.202;16.274;2023-11-19T09:30:16;25.70;;;16.60;;
49123;SDS011;48506;48.202;16.274;2023-11-19T09:32:42;24.45;;;16.33;;
49123;SDS011;48506;48.202;16.274;2023-11-19T09:35:08;24.42;;;16.05;;
49123;SDS011;48506;48.202;16.274;2023-11-19T09:40:05;25.65;;;16.50;;
49123;SDS011;48506;48.202;16.274;2023-11-19T09:42:38;21.83;;;13.95;;
49123;SDS011;48506;48.202;16.274;2023-11-19T09:45:13;22.55;;;15.13;;
49123;SDS011;48506;48.202;16.274;2023-11-19T09:47:45;23.00;;;15.00;;
49123;SDS011;48506;48.202;16.274;2023-11-19T09:50:19;30.00;;;17.55;;
49123;SDS011;48506;48.202;16.274;2023-11-19T09:52:46;24.05;;;15.90;;
49123;SDS011;48506;48.202;16.274;2023-11-19T09:55:13;20.90;;;13.82;;
49123;SDS011;48506;48.202;16.274;2023-11-19T09:57:39;25.30;;;16.80;;
49123;SDS011;48506;48.202;16.274;2023-11-19T10:00:09;24.30;;;15.65;;
49123;SDS011;48506;48.202;16.274;2023-11-19T10:02:37;21.88;;;14.80;;
49123;SDS011;48506;48.202;16.274;2023-11-19T10:05:08;20.63;;;13.73;;
49123;SDS011;48506;48.202;16.274;2023-11-19T10:07:35;21.20;;;14.15;;
49123;SDS011;48506;48.202;16.274;2023-11-19T10:10:02;28.42;;;15.45;;
49123;SDS011;48506;48.202;16.274;2023-11-19T10:12:32;24.13;;;16.65;;
49123;SDS011;48506;48.202;16.274;2023-11-19T10:14:59;25.65;;;18.58;;
49123;SDS011;48506;48.202;16.274;2023-11-19T10:17:28;23.65;;;16.58;;
49123;SDS011;48506;48.202;16.274;2023-11-19T10:19:57;24.10;;;17.63;;
49123;SDS011;48506;48.202;16.274;2023-11-19T10:22:25;25.70;;;15.68;;
49123;SDS011;48506;48.202;16.274;2023-11-19T10:24:52;21.40;;;15.70;;
49123;SDS011;48506;48.202;16.274;2023-11-19T10:27:18;20.67;;;14.85;;
49123;SDS011;48506;48.202;16.274;2023-11-19T10:29:47;20.60;;;14.25;;
49123;SDS011;48506;48.202;16.274;2023-11-19T10:32:13;22.73;;;15.57;;
49123;SDS011;48506;48.202;16.274;2023-11-19T10:34:42;23.98;;;15.68;;
49123;SDS011;48506;48.202;16.274;2023-11-19T10:37:09;23.10;;;16.48;;
49123;SDS011;48506;48.202;16.274;2023-11-19T10:39:55;22.50;;;15.20;;
49123;SDS011;48506;48.202;16.274;2023-11-19T10:42:21;19.52;;;14.30;;
49123;SDS011;48506;48.202;16.274;2023-11-19T10:44:47;22.45;;;15.73;;
49123;SDS011;48506;48.202;16.274;2023-11-19T10:47:14;21.13;;;15.35;;
49123;SDS011;48506;48.202;16.274;2023-11-19T10:49:43;22.27;;;15.88;;
49123;SDS011;48506;48.202;16.274;2023-11-19T10:52:17;21.38;;;15.93;;
49123;SDS011;48506;48.202;16.274;2023-11-19T10:54:49;20.35;;;14.45;;
49123;SDS011;48506;48.202;16.274;2023-11-19T10:57:20;22.88;;;15.57;;
49123;SDS011;48506;48.202;16.274;2023-11-19T11:02:19;18.92;;;13.43;;
49123;SDS011;48506;48.202;16.274;2023-11-19T11:04:48;22.98;;;16.63;;
49123;SDS011;48506;48.202;16.274;2023-11-19T11:07:16;21.90;;;15.15;;
49123;SDS011;48506;48.202;16.274;2023-11-19T11:09:51;22.73;;;15.43;;
49123;SDS011;48506;48.202;16.274;2023-11-19T11:12:18;24.45;;;16.23;;
49123;SDS011;48506;48.202;16.274;2023-11-19T11:14:49;20.67;;;15.73;;
49123;SDS011;48506;48.202;16.274;2023-11-19T11:17:16;23.17;;;15.85;;
49123;SDS011;48506;48.202;16.274;2023-11-19T11:19:44;27.73;;;17.23;;
49123;SDS011;48506;48.202;16.274;2023-11-19T11:22:10;23.33;;;16.50;;
49123;SDS011;48506;48.202;16.274;2023-11-19T11:33:06;19.60;;;14.70;;
49123;SDS011;48506;48.202;16.274;2023-11-19T11:38:15;22.20;;;15.52;;
49123;SDS011;48506;48.202;16.274;2023-11-19T11:41:08;22.92;;;16.33;;
49123;SDS011;48506;48.202;16.274;2023-11-19T11:43:48;25.88;;;16.67;;
49123;SDS011;48506;48.202;16.274;2023-11-19T11:49:02;24.85;;;16.83;;
49123;SDS011;48506;48.202;16.274;2023-11-19T11:51:57;22.92;;;15.05;;
49123;SDS011;48506;48.202;16.274;2023-11-19T12:02:10;20.42;;;14.02;;
49123;SDS011;48506;48.202;16.274;2023-11-19T12:04:42;20.80;;;13.30;;
49123;SDS011;48506;48.202;16.274;2023-11-19T12:07:13;15.65;;;11.65;;
49123;SDS011;48506;48.202;16.274;2023-11-19T12:09:40;18.20;;;12.63;;
49123;SDS011;48506;48.202;16.274;2023-11-19T12:17:37;24.02;;;16.45;;
49123;SDS011;48506;48.202;16.274;2023-11-19T12:20:14;21.75;;;13.65;;
49123;SDS011;48506;48.202;16.274;2023-11-19T12:22:44;20.83;;;14.00;;
49123;SDS011;48506;48.202;16.274;2023-11-19T12:25:11;20.15;;;14.02;;
49123;SDS011;48506;48.202;16.274;2023-11-19T12:27:39;20.48;;;14.23;;
49123;SDS011;48506;48.202;16.274;2023-11-19T12:30:06;19.08;;;13.73;;
49123;SDS011;48506;48.202;16.274;2023-11-19T12:32:42;20.95;;;14.18;;
49123;SDS011;48506;48.202;16.274;2023-11-19T12:35:10;19.70;;;13.93;;
49123;SDS011;48506;48.202;16.274;2023-11-19T12:37:41;20.73;;;14.00;;
49123;SDS011;48506;48.202;16.274;2023-11-19T12:42:48;22.42;;;15.18;;
49123;SDS011;48506;48.202;16.274;2023-11-19T12:45:16;21.27;;;14.95;;
49123;SDS011;48506;48.202;16.274;2023-11-19T12:47:45;19.80;;;14.10;;
49123;SDS011;48506;48.202;16.274;2023-11-19T12:50:16;17.60;;;12.90;;
49123;SDS011;48506;48.202;16.274;2023-11-19T12:52:54;19.65;;;13.10;;
49123;SDS011;48506;48.202;16.274;2023-11-19T12:55:24;22.77;;;14.80;;
49123;SDS011;48506;48.202;16.274;2023-11-19T12:57:52;19.73;;;13.80;;
49123;SDS011;48506;48.202;16.274;2023-11-19T13:00:23;19.58;;;14.48;;
49123;SDS011;48506;48.202;16.274;2023-11-19T13:02:51;21.95;;;15.15;;
49123;SDS011;48506;48.202;16.274;2023-11-19T13:05:23;24.33;;;16.40;;
49123;SDS011;48506;48.202;16.274;2023-11-19T13:10:28;22.02;;;14.80;;
49123;SDS011;48506;48.202;16.274;2023-11-19T13:13:04;19.83;;;13.57;;
49123;SDS011;48506;48.202;16.274;2023-11-19T13:15:32;21.67;;;15.13;;
49123;SDS011;48506;48.202;16.274;2023-11-19T13:17:59;22.40;;;14.73;;
49123;SDS011;48506;48.202;16.274;2023-11-19T13:20:26;21.48;;;15.32;;
49123;SDS011;48506;48.202;16.274;2023-11-19T13:22:53;20.42;;;14.10;;
49123;SDS011;48506;48.202;16.274;2023-11-19T13:25:21;24.88;;;15.85;;
49123;SDS011;48506;48.202;16.274;2023-11-19T13:27:47;23.98;;;15.88;;
49123;SDS011;48506;48.202;16.274;2023-11-19T13:30:13;24.58;;;16.80;;
49123;SDS011;48506;48.202;16.274;2023-11-19T13:32:39;33.78;;;21.25;;
49123;SDS011;48506;48.202;16.274;2023-11-19T13:35:06;25.77;;;17.13;;
49123;SDS011;48506;48.202;16.274;2023-11-19T13:37:34;25.92;;;16.90;;
49123;SDS011;48506;48.202;16.274;2023-11-19T13:40:00;22.48;;;15.90;;
49123;SDS011;48506;48.202;16.274;2023-11-19T13:42:26;28.70;;;18.52;;
49123;SDS011;48506;48.202;16.274;2023-11-19T13:44:52;24.48;;;16.02;;
49123;SDS011;48506;48.202;16.274;2023-11-19T13:47:18;16.52;;;12.73;;
49123;SDS011;48506;48.202;16.274;2023-11-19T13:49:44;15.98;;;11.07;;
49123;SDS011;48506;48.202;16.274;2023-11-19T13:52:10;16.23;;;12.45;;
49123;SDS011;48506;48.202;16.274;2023-11-19T13:54:36;15.55;;;11.82;;
49123;SDS011;48506;48.202;16.274;2023-11-19T13:57:03;16.83;;;12.57;;
49123;SDS011;48506;48.202;16.274;2023-11-19T13:59:31;18.77;;;13.30;;
49123;SDS011;48506;48.202;16.274;2023-11-19T14:01:58;14.68;;;11.95;;
49123;SDS011;48506;48.202;16.274;2023-11-19T14:04:25;18.42;;;13.40;;
49123;SDS011;48506;48.202;16.274;2023-11-19T14:06:52;20.33;;;13.45;;
49123;SDS011;48506;48.202;16.274;2023-11-19T14:09:20;18.60;;;14.75;;
49123;SDS011;48506;48.202;16.274;2023-11-19T14:11:46;24.88;;;16.67;;
49123;SDS011;48506;48.202;16.274;2023-11-19T14:14:14;30.77;;;19.08;;
49123;SDS011;48506;48.202;16.274;2023-11-19T14:16:41;19.10;;;14.85;;
49123;SDS011;48506;48.202;16.274;2023-11-19T14:19:07;22.73;;;16.33;;
49123;SDS011;48506;48.202;16.274;2023-11-19T14:21:33;32.67;;;18.70;;
49123;SDS011;48506;48.202;16.274;2023-11-19T14:23:59;24.83;;;16.73;;
49123;SDS011;48506;48.202;16.274;2023-11-19T14:26:25;24.67;;;18.38;;
49123;SDS011;48506;48.202;16.274;2023-11-19T14:28:51;28.33;;;19.60;;
49123;SDS011;48506;48.202;16.274;2023-11-19T14:31:17;32.95;;;21.70;;
49123;SDS011;48506;48.202;16.274;2023-11-19T14:33:43;28.48;;;19.55;;
49123;SDS011;48506;48.202;16.274;2023-11-19T14:36:09;26.27;;;18.73;;
49123;SDS011;48506;48.202;16.274;2023-11-19T14:38:35;28.75;;;19.17;;
49123;SDS011;48506;48.202;16.274;2023-11-19T14:41:01;32.05;;;21.77;;
49123;SDS011;48506;48.202;16.274;2023-11-19T14:43:27;25.27;;;17.50;;
49123;SDS011;48506;48.202;16.274;2023-11-19T14:45:53;33.15;;;21.30;;
49123;SDS011;48506;48.202;16.274;2023-11-19T14:48:19;34.00;;;20.90;;
49123;SDS011;48506;48.202;16.274;2023-11-19T14:50:45;30.10;;;18.95;;
49123;SDS011;48506;48.202;16.274;2023-11-19T14:53:11;31.85;;;20.10;;
49123;SDS011;48506;48.202;16.274;2023-11-19T14:55:37;32.40;;;19.67;;
49123;SDS011;48506;48.202;16.274;2023-11-19T14:58:03;29.10;;;19.98;;